createdAt,value
2019-03-31T00:00:01.651Z,35
2019-03-31T00:00:04.891Z,36
2019-03-31T00:00:07.096Z,35
2019-03-31T00:00:09.317Z,33
2019-03-31T00:00:13.832Z,34
2019-03-31T00:00:18.229Z,33
2019-03-31T00:00:23.811Z,32
2019-03-31T00:00:26.008Z,33
2019-03-31T00:00:36.039Z,36
2019-03-31T00:00:40.668Z,35
2019-03-31T00:00:45.245Z,34
2019-03-31T00:00:50.924Z,35
2019-03-31T00:01:08.920Z,34
2019-03-31T00:01:13.564Z,33
2019-03-31T00:01:16.880Z,34
2019-03-31T00:01:22.444Z,33
2019-03-31T00:01:29.222Z,35
2019-03-31T00:01:33.696Z,36
2019-03-31T00:01:37.026Z,34
2019-03-31T00:01:41.403Z,35
2019-03-31T00:01:45.856Z,34
2019-03-31T00:01:48.171Z,35
2019-03-31T00:01:51.506Z,34
2019-03-31T00:01:54.835Z,33
2019-03-31T00:01:55.954Z,32
2019-03-31T00:01:59.311Z,33
2019-03-31T00:02:01.656Z,31
2019-03-31T00:02:07.221Z,30
2019-03-31T00:02:11.503Z,31
2019-03-31T00:02:17.274Z,32
2019-03-31T00:02:18.418Z,33
2019-03-31T00:02:21.736Z,32
2019-03-31T00:02:25.184Z,33
2019-03-31T00:02:29.825Z,35
2019-03-31T00:02:32.088Z,36
2019-03-31T00:02:39.658Z,38
2019-03-31T00:02:42.916Z,37
2019-03-31T00:02:48.475Z,36
2019-03-31T00:02:51.887Z,35
2019-03-31T00:02:57.532Z,34
2019-03-31T00:03:07.628Z,31
2019-03-31T00:03:12.173Z,29
2019-03-31T00:03:15.593Z,30
2019-03-31T00:03:20.164Z,28
2019-03-31T00:03:24.708Z,27
2019-03-31T00:03:30.321Z,26
2019-03-31T00:03:33.716Z,27
2019-03-31T00:03:38.176Z,28
2019-03-31T00:03:41.551Z,26
2019-03-31T00:03:52.883Z,27
2019-03-31T00:03:56.339Z,28
2019-03-31T00:04:01.972Z,27
2019-03-31T00:04:05.528Z,28
2019-03-31T00:04:10.100Z,29
2019-03-31T00:04:15.029Z,30
2019-03-31T00:04:18.411Z,32
2019-03-31T00:04:22.891Z,31
2019-03-31T00:04:26.297Z,33
2019-03-31T00:04:29.658Z,34
2019-03-31T00:04:34.266Z,37
2019-03-31T00:04:40.815Z,41
2019-03-31T00:04:45.269Z,43
2019-03-31T00:04:47.582Z,41
2019-03-31T00:04:49.823Z,42
2019-03-31T00:04:54.382Z,41
2019-03-31T00:05:04.460Z,39
2019-03-31T00:05:09.025Z,37
2019-03-31T00:05:14.589Z,35
2019-03-31T00:05:24.733Z,33
2019-03-31T00:05:29.209Z,35
2019-03-31T00:05:32.616Z,34
2019-03-31T00:05:45.005Z,33
2019-03-31T00:05:50.623Z,35
2019-03-31T00:06:02.933Z,36
2019-03-31T00:06:06.268Z,34
2019-03-31T00:06:13.230Z,32
2019-03-31T00:06:19.881Z,34
2019-03-31T00:06:22.282Z,33
2019-03-31T00:06:23.344Z,35
2019-03-31T00:06:26.705Z,37
2019-03-31T00:06:30.095Z,38
2019-03-31T00:06:34.618Z,39
2019-03-31T00:06:38.095Z,40
2019-03-31T00:06:41.557Z,42
2019-03-31T00:06:45.191Z,41
2019-03-31T00:06:46.314Z,42
2019-03-31T00:06:49.658Z,41
2019-03-31T00:06:54.056Z,39
2019-03-31T00:06:56.313Z,38
2019-03-31T00:07:02.940Z,40
2019-03-31T00:07:06.337Z,39
2019-03-31T00:07:10.691Z,38
2019-03-31T00:07:21.817Z,37
2019-03-31T00:07:27.565Z,35
2019-03-31T00:07:29.849Z,37
2019-03-31T00:07:32.091Z,36
2019-03-31T00:07:35.478Z,37
2019-03-31T00:07:36.575Z,38
2019-03-31T00:07:39.907Z,37
2019-03-31T00:07:46.546Z,39
2019-03-31T00:07:48.872Z,37
2019-03-31T00:07:53.343Z,36
2019-03-31T00:07:56.773Z,34
2019-03-31T00:08:09.056Z,33
2019-03-31T00:08:14.610Z,34
2019-03-31T00:08:16.803Z,33
2019-03-31T00:08:21.208Z,34
2019-03-31T00:08:23.388Z,35
2019-03-31T00:08:31.699Z,36
2019-03-31T00:08:35.442Z,37
2019-03-31T00:08:37.608Z,36
2019-03-31T00:08:42.066Z,35
2019-03-31T00:08:45.628Z,34
2019-03-31T00:08:53.412Z,33
2019-03-31T00:09:03.584Z,34
2019-03-31T00:09:09.239Z,33
2019-03-31T00:09:12.577Z,32
2019-03-31T00:09:17.203Z,31
2019-03-31T00:09:21.844Z,32
2019-03-31T00:09:25.241Z,31
2019-03-31T00:09:29.744Z,30
2019-03-31T00:09:34.267Z,29
2019-03-31T00:09:42.359Z,28
2019-03-31T00:09:47.800Z,27
2019-03-31T00:09:52.197Z,29
2019-03-31T00:10:04.534Z,30
2019-03-31T00:10:07.926Z,31
2019-03-31T00:10:19.052Z,32
2019-03-31T00:10:22.431Z,33
2019-03-31T00:10:25.809Z,34
2019-03-31T00:10:27.975Z,35
2019-03-31T00:10:34.099Z,34
2019-03-31T00:10:40.823Z,33
2019-03-31T00:10:47.543Z,35
2019-03-31T00:10:48.621Z,36
2019-03-31T00:10:55.339Z,35
2019-03-31T00:11:01.941Z,34
2019-03-31T00:11:04.191Z,33
2019-03-31T00:11:12.327Z,34
2019-03-31T00:11:14.738Z,33
2019-03-31T00:11:18.136Z,32
2019-03-31T00:11:19.251Z,33
2019-03-31T00:11:21.408Z,32
2019-03-31T00:11:22.539Z,31
2019-03-31T00:11:24.822Z,30
2019-03-31T00:11:29.404Z,33
2019-03-31T00:11:30.510Z,34
2019-03-31T00:11:33.893Z,33
2019-03-31T00:11:39.694Z,34
2019-03-31T00:11:46.503Z,35
2019-03-31T00:11:49.840Z,34
2019-03-31T00:11:53.150Z,33
2019-03-31T00:11:57.610Z,32
2019-03-31T00:12:07.483Z,33
2019-03-31T00:12:10.880Z,35
2019-03-31T00:12:16.535Z,34
2019-03-31T00:12:25.388Z,32
2019-03-31T00:12:28.769Z,33
2019-03-31T00:12:33.200Z,35
2019-03-31T00:12:36.454Z,36
2019-03-31T00:12:41.031Z,37
2019-03-31T00:12:46.681Z,36
2019-03-31T00:12:48.847Z,34
2019-03-31T00:12:52.203Z,32
2019-03-31T00:13:00.007Z,34
2019-03-31T00:13:03.287Z,33
2019-03-31T00:13:04.395Z,34
2019-03-31T00:13:11.132Z,35
2019-03-31T00:13:14.527Z,37
2019-03-31T00:13:16.894Z,38
2019-03-31T00:13:21.289Z,40
2019-03-31T00:13:23.467Z,39
2019-03-31T00:13:26.752Z,40
2019-03-31T00:13:28.962Z,38
2019-03-31T00:13:34.553Z,37
2019-03-31T00:13:40.907Z,36
2019-03-31T00:13:45.506Z,37
2019-03-31T00:13:54.463Z,32
2019-03-31T00:13:57.836Z,33
2019-03-31T00:14:02.369Z,34
2019-03-31T00:14:06.862Z,35
2019-03-31T00:14:11.386Z,37
2019-03-31T00:14:19.271Z,36
2019-03-31T00:14:28.240Z,37
2019-03-31T00:14:34.939Z,36
2019-03-31T00:14:39.385Z,35
2019-03-31T00:14:46.100Z,33
2019-03-31T00:14:51.730Z,34
2019-03-31T00:14:59.577Z,36
2019-03-31T00:15:01.915Z,35
2019-03-31T00:15:04.145Z,36
2019-03-31T00:15:07.536Z,38
2019-03-31T00:15:11.255Z,37
2019-03-31T00:15:13.545Z,38
2019-03-31T00:15:15.840Z,37
2019-03-31T00:15:18.140Z,38
2019-03-31T00:15:22.635Z,40
2019-03-31T00:15:25.380Z,39
2019-03-31T00:15:29.907Z,40
2019-03-31T00:15:35.452Z,39
2019-03-31T00:15:40.980Z,38
2019-03-31T00:15:46.566Z,36
2019-03-31T00:15:53.321Z,37
2019-03-31T00:15:55.630Z,36
2019-03-31T00:16:00.069Z,35
2019-03-31T00:16:04.587Z,37
2019-03-31T00:16:10.239Z,35
2019-03-31T00:16:12.509Z,37
2019-03-31T00:16:16.999Z,36
2019-03-31T00:16:26.021Z,37
2019-03-31T00:16:31.678Z,38
2019-03-31T00:16:36.474Z,36
2019-03-31T00:16:39.848Z,34
2019-03-31T00:16:43.231Z,33
2019-03-31T00:16:44.364Z,32
2019-03-31T00:16:46.550Z,33
2019-03-31T00:16:50.820Z,35
2019-03-31T00:16:57.752Z,36
2019-03-31T00:17:00.045Z,34
2019-03-31T00:17:07.964Z,32
2019-03-31T00:17:12.437Z,30
2019-03-31T00:17:25.762Z,29
2019-03-31T00:17:32.440Z,32
2019-03-31T00:17:36.797Z,35
2019-03-31T00:17:41.313Z,37
2019-03-31T00:17:45.757Z,38
2019-03-31T00:17:48.088Z,39
2019-03-31T00:17:57.126Z,41
2019-03-31T00:17:58.241Z,38
2019-03-31T00:18:04.907Z,40
2019-03-31T00:18:06.011Z,39
2019-03-31T00:18:08.242Z,40
2019-03-31T00:18:10.483Z,42
2019-03-31T00:18:18.248Z,44
2019-03-31T00:18:23.895Z,40
2019-03-31T00:18:29.479Z,39
2019-03-31T00:18:33.979Z,37
2019-03-31T00:18:49.498Z,38
2019-03-31T00:18:51.731Z,37
2019-03-31T00:18:57.394Z,33
2019-03-31T00:19:01.788Z,34
2019-03-31T00:19:06.363Z,35
2019-03-31T00:19:10.844Z,36
2019-03-31T00:19:11.903Z,37
2019-03-31T00:19:16.253Z,36
2019-03-31T00:19:21.880Z,38
2019-03-31T00:19:25.336Z,37
2019-03-31T00:19:30.059Z,41
2019-03-31T00:19:34.579Z,44
2019-03-31T00:19:39.456Z,43
2019-03-31T00:19:41.701Z,41
2019-03-31T00:19:46.231Z,40
2019-03-31T00:19:50.988Z,41
2019-03-31T00:20:02.224Z,38
2019-03-31T00:20:05.578Z,37
2019-03-31T00:20:06.680Z,38
2019-03-31T00:20:10.158Z,39
2019-03-31T00:20:11.249Z,40
2019-03-31T00:20:16.428Z,41
2019-03-31T00:20:19.851Z,39
2019-03-31T00:20:23.226Z,37
2019-03-31T00:20:27.808Z,36
2019-03-31T00:20:32.340Z,37
2019-03-31T00:20:36.819Z,35
2019-03-31T00:20:40.266Z,33
2019-03-31T00:20:43.613Z,35
2019-03-31T00:20:44.752Z,34
2019-03-31T00:20:50.360Z,32
2019-03-31T00:20:58.086Z,33
2019-03-31T00:21:02.470Z,34
2019-03-31T00:21:06.963Z,36
2019-03-31T00:21:09.229Z,38
2019-03-31T00:21:12.593Z,36
2019-03-31T00:21:15.983Z,37
2019-03-31T00:21:18.185Z,36
2019-03-31T00:21:23.889Z,37
2019-03-31T00:21:27.253Z,38
2019-03-31T00:21:30.557Z,37
2019-03-31T00:21:34.983Z,38
2019-03-31T00:21:43.065Z,36
2019-03-31T00:21:46.492Z,34
2019-03-31T00:21:48.682Z,35
2019-03-31T00:21:55.452Z,33
2019-03-31T00:22:03.321Z,37
2019-03-31T00:22:14.246Z,36
2019-03-31T00:22:23.025Z,35
2019-03-31T00:22:27.454Z,34
2019-03-31T00:22:43.238Z,35
2019-03-31T00:22:45.468Z,34
2019-03-31T00:22:51.243Z,33
2019-03-31T00:23:06.023Z,32
2019-03-31T00:23:08.334Z,31
2019-03-31T00:23:12.876Z,29
2019-03-31T00:23:18.567Z,28
2019-03-31T00:23:24.122Z,27
2019-03-31T00:23:28.571Z,28
2019-03-31T00:23:30.932Z,29
2019-03-31T00:23:34.252Z,31
2019-03-31T00:23:36.520Z,33
2019-03-31T00:23:39.894Z,34
2019-03-31T00:23:43.251Z,37
2019-03-31T00:23:46.564Z,38
2019-03-31T00:23:51.029Z,40
2019-03-31T00:23:55.641Z,41
2019-03-31T00:23:57.942Z,44
2019-03-31T00:24:02.445Z,45
2019-03-31T00:24:07.989Z,44
2019-03-31T00:24:12.477Z,45
2019-03-31T00:24:14.770Z,44
2019-03-31T00:24:19.373Z,43
2019-03-31T00:24:26.034Z,42
2019-03-31T00:24:31.697Z,39
2019-03-31T00:24:37.335Z,38
2019-03-31T00:24:40.675Z,37
2019-03-31T00:24:46.272Z,36
2019-03-31T00:24:54.709Z,34
2019-03-31T00:25:06.952Z,37
2019-03-31T00:25:11.388Z,35
2019-03-31T00:25:16.942Z,33
2019-03-31T00:25:22.595Z,31
2019-03-31T00:25:27.886Z,29
2019-03-31T00:25:32.436Z,27
2019-03-31T00:25:40.209Z,28
2019-03-31T00:25:43.508Z,30
2019-03-31T00:25:45.859Z,29
2019-03-31T00:25:49.536Z,30
2019-03-31T00:25:50.638Z,29
2019-03-31T00:25:55.183Z,31
2019-03-31T00:25:57.426Z,33
2019-03-31T00:26:00.700Z,35
2019-03-31T00:26:02.967Z,36
2019-03-31T00:26:07.531Z,37
2019-03-31T00:26:10.887Z,39
2019-03-31T00:26:14.239Z,38
2019-03-31T00:26:15.326Z,39
2019-03-31T00:26:24.345Z,38
2019-03-31T00:26:33.134Z,37
2019-03-31T00:26:36.424Z,36
2019-03-31T00:26:40.745Z,37
2019-03-31T00:26:45.207Z,35
2019-03-31T00:26:49.667Z,34
2019-03-31T00:26:54.182Z,36
2019-03-31T00:26:57.460Z,37
2019-03-31T00:27:00.776Z,36
2019-03-31T00:27:08.317Z,33
2019-03-31T00:27:13.821Z,31
2019-03-31T00:27:21.506Z,33
2019-03-31T00:27:27.167Z,31
2019-03-31T00:27:30.443Z,32
2019-03-31T00:27:34.998Z,33
2019-03-31T00:27:38.292Z,34
2019-03-31T00:27:46.015Z,33
2019-03-31T00:27:58.143Z,34
2019-03-31T00:28:03.748Z,32
2019-03-31T00:28:09.383Z,33
2019-03-31T00:28:12.753Z,34
2019-03-31T00:28:17.166Z,33
2019-03-31T00:28:18.338Z,32
2019-03-31T00:28:28.460Z,35
2019-03-31T00:28:29.634Z,34
2019-03-31T00:28:31.785Z,35
2019-03-31T00:28:36.264Z,37
2019-03-31T00:28:37.368Z,36
2019-03-31T00:28:40.788Z,37
2019-03-31T00:28:43.107Z,38
2019-03-31T00:28:50.849Z,37
2019-03-31T00:28:56.736Z,35
2019-03-31T00:28:59.018Z,36
2019-03-31T00:29:05.824Z,35
2019-03-31T00:29:13.618Z,29
2019-03-31T00:29:15.836Z,30
2019-03-31T00:29:22.436Z,31
2019-03-31T00:29:31.393Z,32
2019-03-31T00:29:40.325Z,34
2019-03-31T00:29:42.630Z,33
2019-03-31T00:29:47.145Z,32
2019-03-31T00:29:57.133Z,30
2019-03-31T00:30:10.666Z,27
2019-03-31T00:30:19.779Z,28
2019-03-31T00:30:23.170Z,29
2019-03-31T00:30:35.321Z,28
2019-03-31T00:30:38.741Z,30
2019-03-31T00:30:42.023Z,31
2019-03-31T00:30:44.289Z,32
2019-03-31T00:30:47.509Z,34
2019-03-31T00:30:54.313Z,36
2019-03-31T00:30:57.725Z,37
2019-03-31T00:30:59.936Z,38
2019-03-31T00:31:04.421Z,36
2019-03-31T00:31:06.606Z,35
2019-03-31T00:31:26.369Z,34
2019-03-31T00:31:32.026Z,35
2019-03-31T00:31:34.273Z,33
2019-03-31T00:31:45.314Z,31
2019-03-31T00:31:49.831Z,30
2019-03-31T00:31:53.182Z,31
2019-03-31T00:31:56.513Z,32
2019-03-31T00:31:59.887Z,33
2019-03-31T00:32:03.246Z,34
2019-03-31T00:32:07.760Z,36
2019-03-31T00:32:10.019Z,35
2019-03-31T00:32:15.699Z,34
2019-03-31T00:32:17.964Z,36
2019-03-31T00:32:29.059Z,33
2019-03-31T00:32:32.517Z,36
2019-03-31T00:32:40.351Z,35
2019-03-31T00:32:46.048Z,34
2019-03-31T00:32:50.439Z,35
2019-03-31T00:32:58.400Z,37
2019-03-31T00:33:01.775Z,35
2019-03-31T00:33:08.535Z,37
2019-03-31T00:33:09.613Z,38
2019-03-31T00:33:14.111Z,37
2019-03-31T00:33:16.403Z,36
2019-03-31T00:33:21.981Z,37
2019-03-31T00:33:26.593Z,35
2019-03-31T00:33:32.115Z,33
2019-03-31T00:33:38.641Z,35
2019-03-31T00:33:53.162Z,34
2019-03-31T00:33:57.642Z,32
2019-03-31T00:34:03.295Z,33
2019-03-31T00:34:04.510Z,32
2019-03-31T00:34:07.874Z,33
2019-03-31T00:34:14.610Z,35
2019-03-31T00:34:20.116Z,36
2019-03-31T00:34:33.162Z,34
2019-03-31T00:34:42.220Z,33
2019-03-31T00:34:46.810Z,32
2019-03-31T00:34:51.418Z,33
2019-03-31T00:35:03.692Z,32
2019-03-31T00:35:08.270Z,30
2019-03-31T00:35:17.213Z,29
2019-03-31T00:35:20.578Z,30
2019-03-31T00:35:23.903Z,31
2019-03-31T00:35:27.274Z,32
2019-03-31T00:35:31.766Z,33
2019-03-31T00:35:34.019Z,35
2019-03-31T00:35:38.511Z,33
2019-03-31T00:35:42.980Z,35
2019-03-31T00:35:46.368Z,36
2019-03-31T00:35:47.475Z,37
2019-03-31T00:35:53.030Z,35
2019-03-31T00:35:55.302Z,36
2019-03-31T00:36:01.007Z,34
2019-03-31T00:36:02.144Z,35
2019-03-31T00:36:06.731Z,33
2019-03-31T00:36:11.247Z,35
2019-03-31T00:36:16.899Z,32
2019-03-31T00:36:21.387Z,31
2019-03-31T00:36:26.973Z,33
2019-03-31T00:36:33.628Z,35
2019-03-31T00:36:35.771Z,36
2019-03-31T00:36:44.462Z,35
2019-03-31T00:36:49.095Z,34
2019-03-31T00:36:58.134Z,35
2019-03-31T00:37:01.564Z,34
2019-03-31T00:37:09.031Z,35
2019-03-31T00:37:14.634Z,36
2019-03-31T00:37:16.944Z,38
2019-03-31T00:37:21.434Z,37
2019-03-31T00:37:23.729Z,36
2019-03-31T00:37:29.427Z,35
2019-03-31T00:37:30.533Z,34
2019-03-31T00:37:36.179Z,35
2019-03-31T00:37:43.087Z,32
2019-03-31T00:37:47.587Z,33
2019-03-31T00:37:48.689Z,32
2019-03-31T00:37:54.306Z,31
2019-03-31T00:38:01.057Z,32
2019-03-31T00:38:07.672Z,31
2019-03-31T00:38:13.276Z,30
2019-03-31T00:38:26.676Z,27
2019-03-31T00:38:35.455Z,49
2019-03-31T00:38:43.273Z,47
2019-03-31T00:38:45.575Z,46
2019-03-31T00:38:51.200Z,45
2019-03-31T00:38:53.409Z,44
2019-03-31T00:38:57.874Z,43
2019-03-31T00:39:00.188Z,41
2019-03-31T00:39:03.494Z,39
2019-03-31T00:39:06.859Z,37
2019-03-31T00:39:11.375Z,34
2019-03-31T00:39:13.692Z,36
2019-03-31T00:39:17.053Z,37
2019-03-31T00:39:25.437Z,36
2019-03-31T00:39:30.976Z,38
2019-03-31T00:39:35.433Z,37
2019-03-31T00:39:38.903Z,36
2019-03-31T00:39:40.068Z,35
2019-03-31T00:39:44.643Z,34
2019-03-31T00:39:49.112Z,38
2019-03-31T00:39:52.532Z,36
2019-03-31T00:39:59.330Z,37
2019-03-31T00:40:03.864Z,36
2019-03-31T00:40:08.321Z,37
2019-03-31T00:40:11.748Z,38
2019-03-31T00:40:15.231Z,40
2019-03-31T00:40:18.506Z,39
2019-03-31T00:40:29.735Z,43
2019-03-31T00:40:38.606Z,38
2019-03-31T00:40:44.223Z,36
2019-03-31T00:40:55.257Z,39
2019-03-31T00:41:00.906Z,40
2019-03-31T00:41:05.368Z,38
2019-03-31T00:41:14.170Z,39
2019-03-31T00:41:19.812Z,38
2019-03-31T00:41:23.049Z,37
2019-03-31T00:41:25.295Z,36
2019-03-31T00:41:29.751Z,38
2019-03-31T00:41:33.148Z,36
2019-03-31T00:41:35.345Z,35
2019-03-31T00:41:40.932Z,36
2019-03-31T00:41:45.436Z,35
2019-03-31T00:41:57.988Z,36
2019-03-31T00:42:01.592Z,35
2019-03-31T00:42:04.924Z,34
2019-03-31T00:42:10.368Z,32
2019-03-31T00:42:14.977Z,33
2019-03-31T00:42:20.783Z,32
2019-03-31T00:42:25.309Z,31
2019-03-31T00:42:38.551Z,33
2019-03-31T00:42:40.862Z,32
2019-03-31T00:42:48.586Z,31
2019-03-31T00:42:54.207Z,33
2019-03-31T00:43:02.005Z,34
2019-03-31T00:43:04.323Z,33
2019-03-31T00:43:08.835Z,37
2019-03-31T00:43:12.178Z,36
2019-03-31T00:43:13.284Z,37
2019-03-31T00:43:16.613Z,38
2019-03-31T00:43:21.064Z,39
2019-03-31T00:43:26.747Z,41
2019-03-31T00:43:28.949Z,44
2019-03-31T00:43:33.472Z,45
2019-03-31T00:43:39.148Z,46
2019-03-31T00:43:43.595Z,45
2019-03-31T00:43:50.225Z,46
2019-03-31T00:43:55.721Z,47
2019-03-31T00:44:05.752Z,44
2019-03-31T00:44:10.296Z,43
2019-03-31T00:44:13.734Z,44
2019-03-31T00:44:16.987Z,42
2019-03-31T00:44:21.319Z,40
2019-03-31T00:44:24.619Z,38
2019-03-31T00:44:30.333Z,36
2019-03-31T00:44:41.458Z,33
2019-03-31T00:44:45.938Z,32
2019-03-31T00:44:52.686Z,31
2019-03-31T00:44:56.072Z,32
2019-03-31T00:45:00.484Z,31
2019-03-31T00:45:03.849Z,30
2019-03-31T00:45:09.402Z,29
2019-03-31T00:45:19.469Z,32
2019-03-31T00:45:23.977Z,33
2019-03-31T00:45:29.505Z,32
2019-03-31T00:45:31.835Z,33
2019-03-31T00:45:37.166Z,36
2019-03-31T00:45:40.531Z,38
2019-03-31T00:45:42.781Z,39
2019-03-31T00:45:47.274Z,37
2019-03-31T00:45:51.744Z,36
2019-03-31T00:45:56.301Z,34
2019-03-31T00:46:02.965Z,35
2019-03-31T00:46:10.770Z,34
2019-03-31T00:46:15.250Z,32
2019-03-31T00:46:19.758Z,33
2019-03-31T00:46:27.672Z,32
2019-03-31T00:46:33.249Z,31
2019-03-31T00:46:36.587Z,30
2019-03-31T00:46:41.156Z,29
2019-03-31T00:46:46.783Z,27
2019-03-31T00:46:50.124Z,28
2019-03-31T00:46:53.497Z,27
2019-03-31T00:47:11.194Z,28
2019-03-31T00:47:22.619Z,27
2019-03-31T00:47:29.330Z,32
2019-03-31T00:47:34.951Z,35
2019-03-31T00:47:38.338Z,39
2019-03-31T00:47:46.062Z,62
2019-03-31T00:47:48.378Z,61
2019-03-31T00:47:57.418Z,60
2019-03-31T00:47:59.667Z,62
2019-03-31T00:48:03.059Z,64
2019-03-31T00:48:09.730Z,65
2019-03-31T00:48:13.085Z,67
2019-03-31T00:48:18.745Z,68
2019-03-31T00:48:19.949Z,69
2019-03-31T00:48:25.560Z,70
2019-03-31T00:48:31.268Z,69
2019-03-31T00:48:40.159Z,68
2019-03-31T00:48:42.455Z,67
2019-03-31T00:48:44.855Z,68
2019-03-31T00:48:50.508Z,67
2019-03-31T00:48:59.392Z,65
2019-03-31T00:49:03.890Z,64
2019-03-31T00:49:07.298Z,66
2019-03-31T00:49:11.771Z,65
2019-03-31T00:49:15.011Z,64
2019-03-31T00:49:17.300Z,65
2019-03-31T00:49:25.077Z,64
2019-03-31T00:49:30.726Z,63
2019-03-31T00:49:34.015Z,62
2019-03-31T00:49:41.766Z,60
2019-03-31T00:49:48.454Z,46
2019-03-31T00:49:52.997Z,45
2019-03-31T00:49:56.387Z,41
2019-03-31T00:49:59.747Z,40
2019-03-31T00:50:04.293Z,41
2019-03-31T00:50:05.402Z,40
2019-03-31T00:50:09.117Z,42
2019-03-31T00:50:12.388Z,41
2019-03-31T00:50:17.963Z,40
2019-03-31T00:50:21.391Z,39
2019-03-31T00:50:25.092Z,37
2019-03-31T00:50:30.674Z,36
2019-03-31T00:50:37.357Z,35
2019-03-31T00:50:45.235Z,34
2019-03-31T00:50:54.127Z,33
2019-03-31T00:50:57.563Z,32
2019-03-31T00:51:02.002Z,33
2019-03-31T00:51:07.555Z,34
2019-03-31T00:51:12.020Z,33
2019-03-31T00:51:16.580Z,34
2019-03-31T00:51:22.344Z,33
2019-03-31T00:51:30.253Z,36
2019-03-31T00:51:33.660Z,38
2019-03-31T00:51:38.115Z,41
2019-03-31T00:51:41.497Z,43
2019-03-31T00:51:50.379Z,29
2019-03-31T00:51:52.660Z,28
2019-03-31T00:51:59.839Z,29
2019-03-31T00:52:06.777Z,28
2019-03-31T00:52:11.396Z,27
2019-03-31T00:52:15.974Z,28
2019-03-31T00:52:25.155Z,29
2019-03-31T00:52:28.473Z,28
2019-03-31T00:52:39.621Z,31
2019-03-31T00:52:51.827Z,30
2019-03-31T00:52:57.326Z,31
2019-03-31T00:53:02.980Z,30
2019-03-31T00:53:07.478Z,31
2019-03-31T00:53:13.027Z,29
2019-03-31T00:53:16.516Z,28
2019-03-31T00:53:24.465Z,29
2019-03-31T00:53:30.078Z,30
2019-03-31T00:53:33.953Z,29
2019-03-31T00:53:38.773Z,30
2019-03-31T00:53:44.362Z,31
2019-03-31T00:53:47.718Z,30
2019-03-31T00:53:59.875Z,31
2019-03-31T00:54:03.180Z,32
2019-03-31T00:54:06.960Z,31
2019-03-31T00:54:13.672Z,32
2019-03-31T00:54:17.030Z,33
2019-03-31T00:54:23.820Z,32
2019-03-31T00:54:37.844Z,33
2019-03-31T00:54:44.491Z,34
2019-03-31T00:54:53.386Z,32
2019-03-31T00:55:02.626Z,33
2019-03-31T00:55:05.909Z,34
2019-03-31T00:55:10.555Z,36
2019-03-31T00:55:19.372Z,35
2019-03-31T00:55:21.594Z,34
2019-03-31T00:55:30.579Z,35
2019-03-31T00:55:38.433Z,33
2019-03-31T00:55:41.739Z,32
2019-03-31T00:55:43.985Z,34
2019-03-31T00:55:47.333Z,35
2019-03-31T00:56:00.860Z,34
2019-03-31T00:56:03.178Z,32
2019-03-31T00:56:07.777Z,31
2019-03-31T00:56:08.890Z,30
2019-03-31T00:56:12.309Z,32
2019-03-31T00:56:14.518Z,33
2019-03-31T00:56:17.778Z,32
2019-03-31T00:56:18.884Z,33
2019-03-31T00:56:22.262Z,32
2019-03-31T00:56:24.518Z,33
2019-03-31T00:56:30.195Z,32
2019-03-31T00:56:35.829Z,33
2019-03-31T00:56:40.355Z,32
2019-03-31T00:56:43.665Z,31
2019-03-31T00:56:44.743Z,32
2019-03-31T00:56:46.944Z,34
2019-03-31T00:56:55.659Z,39
2019-03-31T00:56:59.080Z,43
2019-03-31T00:57:01.305Z,45
2019-03-31T00:57:06.805Z,44
2019-03-31T00:57:12.399Z,45
2019-03-31T00:57:15.992Z,47
2019-03-31T00:57:21.638Z,48
2019-03-31T00:57:25.004Z,50
2019-03-31T00:57:30.641Z,49
2019-03-31T00:57:37.398Z,48
2019-03-31T00:57:45.257Z,47
2019-03-31T00:57:56.421Z,46
2019-03-31T00:57:59.868Z,45
2019-03-31T00:58:02.115Z,44
2019-03-31T00:58:08.889Z,45
2019-03-31T00:58:13.518Z,47
2019-03-31T00:58:16.908Z,46
2019-03-31T00:58:20.402Z,48
2019-03-31T00:58:26.083Z,49
2019-03-31T00:58:32.729Z,48
2019-03-31T00:58:38.349Z,44
2019-03-31T00:58:47.239Z,42
2019-03-31T00:58:51.722Z,38
2019-03-31T00:58:58.523Z,27
2019-03-31T00:59:03.166Z,28
2019-03-31T00:59:07.764Z,30
2019-03-31T00:59:15.733Z,31
2019-03-31T00:59:24.802Z,30
2019-03-31T00:59:29.245Z,29
2019-03-31T00:59:33.609Z,31
2019-03-31T00:59:37.015Z,32
2019-03-31T00:59:44.846Z,33
2019-03-31T00:59:47.107Z,35
2019-03-31T00:59:50.546Z,36
2019-03-31T00:59:52.770Z,37
2019-03-31T00:59:57.302Z,36
2019-03-31T00:59:59.569Z,35
2019-03-31T01:00:02.981Z,33
2019-03-31T01:00:08.636Z,32
2019-03-31T01:00:13.139Z,31
2019-03-31T01:00:17.740Z,30
2019-03-31T01:00:21.245Z,29
2019-03-31T01:00:29.368Z,30
2019-03-31T01:00:30.545Z,31
2019-03-31T01:00:33.984Z,32
2019-03-31T01:00:36.297Z,33
2019-03-31T01:00:40.890Z,34
2019-03-31T01:00:44.286Z,35
2019-03-31T01:00:47.560Z,37
2019-03-31T01:00:49.883Z,38
2019-03-31T01:01:00.972Z,35
2019-03-31T01:01:05.490Z,34
2019-03-31T01:01:10.063Z,33
2019-03-31T01:01:15.791Z,31
2019-03-31T01:01:19.202Z,30
2019-03-31T01:01:38.358Z,29
2019-03-31T01:01:45.092Z,28
2019-03-31T01:01:48.496Z,29
2019-03-31T01:01:54.015Z,30
2019-03-31T01:01:57.372Z,29
2019-03-31T01:02:00.698Z,28
2019-03-31T01:02:10.851Z,27
2019-03-31T01:02:15.274Z,28
2019-03-31T01:02:19.908Z,26
2019-03-31T01:02:30.159Z,25
2019-03-31T01:02:39.098Z,24
2019-03-31T01:02:42.471Z,25
2019-03-31T01:02:48.143Z,26
2019-03-31T01:02:55.899Z,24
2019-03-31T01:03:03.701Z,30
2019-03-31T01:03:11.623Z,29
2019-03-31T01:03:14.933Z,30
2019-03-31T01:03:21.689Z,29
2019-03-31T01:03:25.028Z,30
2019-03-31T01:03:32.805Z,29
2019-03-31T01:03:38.398Z,31
2019-03-31T01:03:51.621Z,30
2019-03-31T01:03:55.017Z,29
2019-03-31T01:03:59.609Z,28
2019-03-31T01:04:06.251Z,27
2019-03-31T01:04:14.047Z,26
2019-03-31T01:04:17.457Z,25
2019-03-31T01:04:26.529Z,26
2019-03-31T01:04:31.953Z,25
2019-03-31T01:04:46.352Z,26
2019-03-31T01:04:49.711Z,27
2019-03-31T01:04:56.475Z,28
2019-03-31T01:05:04.415Z,29
2019-03-31T01:05:11.156Z,27
2019-03-31T01:05:16.749Z,28
2019-03-31T01:05:30.183Z,27
2019-03-31T01:05:45.971Z,26
2019-03-31T01:05:51.551Z,28
2019-03-31T01:05:58.330Z,27
2019-03-31T01:06:06.127Z,28
2019-03-31T01:06:09.570Z,27
2019-03-31T01:06:16.292Z,29
2019-03-31T01:06:18.568Z,30
2019-03-31T01:06:26.322Z,28
2019-03-31T01:06:29.669Z,27
2019-03-31T01:06:34.181Z,29
2019-03-31T01:06:48.678Z,30
2019-03-31T01:06:56.521Z,27
2019-03-31T01:07:06.610Z,28
2019-03-31T01:07:09.888Z,29
2019-03-31T01:07:15.465Z,30
2019-03-31T01:07:23.335Z,31
2019-03-31T01:07:26.703Z,30
2019-03-31T01:07:27.819Z,31
2019-03-31T01:07:31.167Z,32
2019-03-31T01:07:33.582Z,31
2019-03-31T01:07:36.879Z,32
2019-03-31T01:07:40.363Z,30
2019-03-31T01:07:44.853Z,31
2019-03-31T01:07:51.685Z,32
2019-03-31T01:07:57.249Z,30
2019-03-31T01:08:01.726Z,31
2019-03-31T01:08:05.068Z,30
2019-03-31T01:08:07.314Z,31
2019-03-31T01:08:10.705Z,34
2019-03-31T01:08:16.329Z,37
2019-03-31T01:08:19.684Z,39
2019-03-31T01:08:25.523Z,42
2019-03-31T01:08:28.910Z,44
2019-03-31T01:08:34.539Z,49
2019-03-31T01:08:37.915Z,50
2019-03-31T01:08:43.516Z,52
2019-03-31T01:08:46.901Z,54
2019-03-31T01:09:00.485Z,51
2019-03-31T01:09:04.983Z,50
2019-03-31T01:09:11.669Z,44
2019-03-31T01:09:13.927Z,45
2019-03-31T01:09:17.288Z,43
2019-03-31T01:09:23.012Z,41
2019-03-31T01:09:29.181Z,39
2019-03-31T01:09:40.427Z,38
2019-03-31T01:09:42.738Z,39
2019-03-31T01:09:46.076Z,40
2019-03-31T01:09:59.646Z,43
2019-03-31T01:10:02.965Z,42
2019-03-31T01:10:06.329Z,43
2019-03-31T01:10:09.755Z,44
2019-03-31T01:10:21.852Z,41
2019-03-31T01:10:24.131Z,42
2019-03-31T01:10:27.521Z,41
2019-03-31T01:10:32.067Z,39
2019-03-31T01:10:42.080Z,38
2019-03-31T01:10:44.335Z,39
2019-03-31T01:10:49.993Z,40
2019-03-31T01:10:58.946Z,41
2019-03-31T01:11:06.800Z,42
2019-03-31T01:11:10.138Z,43
2019-03-31T01:11:16.872Z,44
2019-03-31T01:11:27.921Z,43
2019-03-31T01:11:32.326Z,44
2019-03-31T01:11:34.528Z,43
2019-03-31T01:11:37.840Z,42
2019-03-31T01:11:41.114Z,41
2019-03-31T01:11:45.534Z,39
2019-03-31T01:11:49.936Z,37
2019-03-31T01:11:57.906Z,36
2019-03-31T01:12:03.859Z,35
2019-03-31T01:12:08.308Z,32
2019-03-31T01:12:14.867Z,44
2019-03-31T01:12:34.397Z,42
2019-03-31T01:12:38.940Z,39
2019-03-31T01:12:46.709Z,37
2019-03-31T01:12:51.312Z,35
2019-03-31T01:12:55.905Z,32
2019-03-31T01:13:03.726Z,29
2019-03-31T01:13:14.928Z,33
2019-03-31T01:13:18.281Z,39